sensor_id;sensor_type;location;lat;lon;timestamp;temperature;humidity
23755;DHT22;12057;52.042;6.830;2022-11-24T00:00:20;7.40;99.90
23755;DHT22;12057;52.042;6.830;2022-11-24T00:05:23;7.50;99.90
23755;DHT22;12057;52.042;6.830;2022-11-24T00:10:25;7.50;99.90
23755;DHT22;12057;52.042;6.830;2022-11-24T00:15:28;7.50;99.90
23755;DHT22;12057;52.042;6.830;2022-11-24T00:20:36;7.40;99.90
23755;DHT22;12057;52.042;6.830;2022-11-24T00:25:38;7.40;99.90
23755;DHT22;12057;52.042;6.830;2022-11-24T00:30:43;7.40;99.90
23755;DHT22;12057;52.042;6.830;2022-11-24T00:35:45;7.50;99.90
23755;DHT22;12057;52.042;6.830;2022-11-24T00:40:53;7.50;99.90
23755;DHT22;12057;52.042;6.830;2022-11-24T00:46:01;7.50;99.90
23755;DHT22;12057;52.042;6.830;2022-11-24T00:51:08;7.60;99.90
23755;DHT22;12057;52.042;6.830;2022-11-24T00:56:16;7.50;99.90
23755;DHT22;12057;52.042;6.830;2022-11-24T01:01:23;7.50;99.90
23755;DHT22;12057;52.042;6.830;2022-11-24T01:06:28;7.50;99.90
23755;DHT22;12057;52.042;6.830;2022-11-24T01:11:34;7.50;99.90
23755;DHT22;12057;52.042;6.830;2022-11-24T01:21:57;7.50;99.90
23755;DHT22;12057;52.042;6.830;2022-11-24T01:27:00;7.40;99.90
23755;DHT22;12057;52.042;6.830;2022-11-24T01:32:05;7.40;99.90
23755;DHT22;12057;52.042;6.830;2022-11-24T01:37:11;7.40;99.90
23755;DHT22;12057;52.042;6.830;2022-11-24T01:42:12;7.40;99.90
23755;DHT22;12057;52.042;6.830;2022-11-24T01:52:32;7.50;99.90
23755;DHT22;12057;52.042;6.830;2022-11-24T01:57:40;7.50;99.90
23755;DHT22;12057;52.042;6.830;2022-11-24T02:02:56;7.50;99.90
23755;DHT22;12057;52.042;6.830;2022-11-24T02:07:59;7.50;99.90
23755;DHT22;12057;52.042;6.830;2022-11-24T02:13:05;7.50;99.90
23755;DHT22;12057;52.042;6.830;2022-11-24T02:18:07;7.50;99.90
23755;DHT22;12057;52.042;6.830;2022-11-24T02:23:27;7.50;99.90
23755;DHT22;12057;52.042;6.830;2022-11-24T02:28:36;7.50;99.90
23755;DHT22;12057;52.042;6.830;2022-11-24T02:33:39;7.50;99.90
23755;DHT22;12057;52.042;6.830;2022-11-24T02:38:44;7.50;99.90
23755;DHT22;12057;52.042;6.830;2022-11-24T02:43:54;7.40;99.90
23755;DHT22;12057;52.042;6.830;2022-11-24T02:48:59;7.40;99.90
23755;DHT22;12057;52.042;6.830;2022-11-24T02:54:03;7.50;99.90
23755;DHT22;12057;52.042;6.830;2022-11-24T02:59:11;7.50;99.90
23755;DHT22;12057;52.042;6.830;2022-11-24T03:04:21;7.50;99.90
23755;DHT22;12057;52.042;6.830;2022-11-24T03:09:29;7.40;99.90
23755;DHT22;12057;52.042;6.830;2022-11-24T03:14:36;7.50;99.90
23755;DHT22;12057;52.042;6.830;2022-11-24T03:19:41;7.50;99.90
23755;DHT22;12057;52.042;6.830;2022-11-24T03:24:43;7.50;99.90
23755;DHT22;12057;52.042;6.830;2022-11-24T03:29:49;7.50;99.90
23755;DHT22;12057;52.042;6.830;2022-11-24T03:34:53;7.60;99.90
23755;DHT22;12057;52.042;6.830;2022-11-24T03:39:55;7.70;99.90
23755;DHT22;12057;52.042;6.830;2022-11-24T03:44:58;7.70;99.90
23755;DHT22;12057;52.042;6.830;2022-11-24T03:50:02;7.60;99.90
23755;DHT22;12057;52.042;6.830;2022-11-24T03:55:05;7.60;99.90
23755;DHT22;12057;52.042;6.830;2022-11-24T04:00:08;7.50;99.90
23755;DHT22;12057;52.042;6.830;2022-11-24T04:05:12;7.50;99.90
23755;DHT22;12057;52.042;6.830;2022-11-24T04:10:14;7.60;99.90
23755;DHT22;12057;52.042;6.830;2022-11-24T04:15:18;7.60;99.90
23755;DHT22;12057;52.042;6.830;2022-11-24T04:20:22;7.50;99.90
23755;DHT22;12057;52.042;6.830;2022-11-24T04:25:27;7.50;99.90
23755;DHT22;12057;52.042;6.830;2022-11-24T04:30:29;7.50;99.90
23755;DHT22;12057;52.042;6.830;2022-11-24T04:35:31;7.60;99.90
23755;DHT22;12057;52.042;6.830;2022-11-24T04:40:33;7.60;99.90
23755;DHT22;12057;52.042;6.830;2022-11-24T04:45:35;7.60;99.90
23755;DHT22;12057;52.042;6.830;2022-11-24T04:50:41;7.60;99.90
23755;DHT22;12057;52.042;6.830;2022-11-24T04:55:43;7.60;99.90
23755;DHT22;12057;52.042;6.830;2022-11-24T05:00:49;7.70;99.90
23755;DHT22;12057;52.042;6.830;2022-11-24T05:06:01;7.70;99.90
23755;DHT22;12057;52.042;6.830;2022-11-24T05:11:06;7.80;99.90
23755;DHT22;12057;52.042;6.830;2022-11-24T05:16:08;7.90;99.90
23755;DHT22;12057;52.042;6.830;2022-11-24T05:21:11;7.90;99.90
23755;DHT22;12057;52.042;6.830;2022-11-24T05:26:20;8.00;99.90
23755;DHT22;12057;52.042;6.830;2022-11-24T05:31:21;8.20;99.90
23755;DHT22;12057;52.042;6.830;2022-11-24T05:36:26;8.20;99.90
23755;DHT22;12057;52.042;6.830;2022-11-24T05:41:54;8.30;99.90
23755;DHT22;12057;52.042;6.830;2022-11-24T05:46:58;8.30;99.90
23755;DHT22;12057;52.042;6.830;2022-11-24T05:52:00;8.30;99.90
23755;DHT22;12057;52.042;6.830;2022-11-24T05:57:07;8.30;99.90
23755;DHT22;12057;52.042;6.830;2022-11-24T06:02:11;8.40;99.90
23755;DHT22;12057;52.042;6.830;2022-11-24T06:07:17;8.40;99.90
23755;DHT22;12057;52.042;6.830;2022-11-24T06:12:18;8.40;99.90
23755;DHT22;12057;52.042;6.830;2022-11-24T06:17:22;8.40;99.90
23755;DHT22;12057;52.042;6.830;2022-11-24T06:22:24;8.30;99.90
23755;DHT22;12057;52.042;6.830;2022-11-24T06:27:25;8.40;99.90
23755;DHT22;12057;52.042;6.830;2022-11-24T06:32:30;8.40;99.90
23755;DHT22;12057;52.042;6.830;2022-11-24T06:37:34;8.40;99.90
23755;DHT22;12057;52.042;6.830;2022-11-24T06:42:38;8.40;99.90
23755;DHT22;12057;52.042;6.830;2022-11-24T06:47:43;8.40;99.90
23755;DHT22;12057;52.042;6.830;2022-11-24T06:52:53;8.40;99.90
23755;DHT22;12057;52.042;6.830;2022-11-24T06:57:54;8.40;99.90
23755;DHT22;12057;52.042;6.830;2022-11-24T07:02:59;8.40;99.90
23755;DHT22;12057;52.042;6.830;2022-11-24T07:08:11;8.40;99.90
23755;DHT22;12057;52.042;6.830;2022-11-24T07:13:16;8.40;99.90
23755;DHT22;12057;52.042;6.830;2022-11-24T07:18:21;8.40;99.90
23755;DHT22;12057;52.042;6.830;2022-11-24T07:23:26;8.40;99.90
23755;DHT22;12057;52.042;6.830;2022-11-24T07:28:37;8.40;99.90
23755;DHT22;12057;52.042;6.830;2022-11-24T07:33:38;8.40;99.90
23755;DHT22;12057;52.042;6.830;2022-11-24T07:38:39;8.40;99.90
23755;DHT22;12057;52.042;6.830;2022-11-24T07:43:43;8.30;99.90
23755;DHT22;12057;52.042;6.830;2022-11-24T07:48:46;8.30;99.90
23755;DHT22;12057;52.042;6.830;2022-11-24T07:53:49;8.30;99.90
23755;DHT22;12057;52.042;6.830;2022-11-24T07:58:55;8.30;99.90
23755;DHT22;12057;52.042;6.830;2022-11-24T08:04:00;8.30;99.90
23755;DHT22;12057;52.042;6.830;2022-11-24T08:09:10;8.20;99.90
23755;DHT22;12057;52.042;6.830;2022-11-24T08:14:12;8.30;99.90
23755;DHT22;12057;52.042;6.830;2022-11-24T08:19:17;8.30;99.90
23755;DHT22;12057;52.042;6.830;2022-11-24T08:24:19;8.40;99.90
23755;DHT22;12057;52.042;6.830;2022-11-24T08:29:29;8.40;99.90
23755;DHT22;12057;52.042;6.830;2022-11-24T08:34:32;8.40;99.90
23755;DHT22;12057;52.042;6.830;2022-11-24T08:39:36;8.50;99.90
23755;DHT22;12057;52.042;6.830;2022-11-24T08:44:41;8.60;99.90
23755;DHT22;12057;52.042;6.830;2022-11-24T08:49:44;8.60;99.90
23755;DHT22;12057;52.042;6.830;2022-11-24T08:54:47;8.60;99.90
23755;DHT22;12057;52.042;6.830;2022-11-24T08:59:50;8.70;99.90
23755;DHT22;12057;52.042;6.830;2022-11-24T09:04:52;8.80;99.90
23755;DHT22;12057;52.042;6.830;2022-11-24T09:09:53;8.90;99.90
23755;DHT22;12057;52.042;6.830;2022-11-24T09:14:54;9.00;99.90
23755;DHT22;12057;52.042;6.830;2022-11-24T09:19:56;9.10;99.90
23755;DHT22;12057;52.042;6.830;2022-11-24T09:24:57;9.10;99.90
23755;DHT22;12057;52.042;6.830;2022-11-24T09:30:02;9.10;99.90
23755;DHT22;12057;52.042;6.830;2022-11-24T09:35:13;9.20;99.90
23755;DHT22;12057;52.042;6.830;2022-11-24T09:40:18;9.20;99.90
23755;DHT22;12057;52.042;6.830;2022-11-24T09:50:40;9.30;99.90
23755;DHT22;12057;52.042;6.830;2022-11-24T09:55:51;9.20;99.90
23755;DHT22;12057;52.042;6.830;2022-11-24T10:00:54;9.30;99.90
23755;DHT22;12057;52.042;6.830;2022-11-24T10:05:55;9.50;99.90
23755;DHT22;12057;52.042;6.830;2022-11-24T10:10:59;9.70;99.90
23755;DHT22;12057;52.042;6.830;2022-11-24T10:16:11;9.70;99.90
23755;DHT22;12057;52.042;6.830;2022-11-24T10:26:38;9.80;99.90
23755;DHT22;12057;52.042;6.830;2022-11-24T10:31:42;9.80;99.90
23755;DHT22;12057;52.042;6.830;2022-11-24T10:42:29;9.80;99.90
23755;DHT22;12057;52.042;6.830;2022-11-24T10:47:31;9.70;99.90
23755;DHT22;12057;52.042;6.830;2022-11-24T10:52:40;9.70;99.90
23755;DHT22;12057;52.042;6.830;2022-11-24T10:57:41;9.70;99.90
23755;DHT22;12057;52.042;6.830;2022-11-24T11:02:43;9.70;99.90
23755;DHT22;12057;52.042;6.830;2022-11-24T11:07:44;10.00;99.90
23755;DHT22;12057;52.042;6.830;2022-11-24T11:12:45;10.40;99.90
23755;DHT22;12057;52.042;6.830;2022-11-24T11:17:48;10.60;99.90
23755;DHT22;12057;52.042;6.830;2022-11-24T11:22:52;10.40;99.90
23755;DHT22;12057;52.042;6.830;2022-11-24T11:28:16;10.40;99.90
23755;DHT22;12057;52.042;6.830;2022-11-24T11:33:23;10.20;99.90
23755;DHT22;12057;52.042;6.830;2022-11-24T11:38:29;10.40;99.90
23755;DHT22;12057;52.042;6.830;2022-11-24T11:43:35;10.20;99.90
23755;DHT22;12057;52.042;6.830;2022-11-24T11:48:46;10.30;99.90
23755;DHT22;12057;52.042;6.830;2022-11-24T11:59:31;11.10;99.90
23755;DHT22;12057;52.042;6.830;2022-11-24T12:05:08;11.50;99.90
23755;DHT22;12057;52.042;6.830;2022-11-24T12:32:08;11.80;99.90
23755;DHT22;12057;52.042;6.830;2022-11-24T12:42:58;11.80;99.90
23755;DHT22;12057;52.042;6.830;2022-11-24T12:48:25;11.90;99.90
23755;DHT22;12057;52.042;6.830;2022-11-24T12:53:32;12.50;99.90
23755;DHT22;12057;52.042;6.830;2022-11-24T13:04:19;12.70;99.90
23755;DHT22;12057;52.042;6.830;2022-11-24T13:09:23;12.80;99.90
23755;DHT22;12057;52.042;6.830;2022-11-24T13:14:30;12.70;99.90
23755;DHT22;12057;52.042;6.830;2022-11-24T13:19:35;12.50;99.90
23755;DHT22;12057;52.042;6.830;2022-11-24T13:24:37;12.60;99.90
23755;DHT22;12057;52.042;6.830;2022-11-24T13:29:40;12.50;99.90
23755;DHT22;12057;52.042;6.830;2022-11-24T13:39:53;12.50;99.90
23755;DHT22;12057;52.042;6.830;2022-11-24T13:50:00;11.60;99.90
23755;DHT22;12057;52.042;6.830;2022-11-24T13:55:17;11.30;99.90
23755;DHT22;12057;52.042;6.830;2022-11-24T14:05:25;11.00;99.90
23755;DHT22;12057;52.042;6.830;2022-11-24T14:10:33;10.90;99.90
23755;DHT22;12057;52.042;6.830;2022-11-24T14:15:34;10.70;99.90
23755;DHT22;12057;52.042;6.830;2022-11-24T14:20:35;10.60;99.90
23755;DHT22;12057;52.042;6.830;2022-11-24T14:25:36;10.50;99.90
23755;DHT22;12057;52.042;6.830;2022-11-24T14:30:37;10.40;99.90
23755;DHT22;12057;52.042;6.830;2022-11-24T14:35:44;10.30;99.90
23755;DHT22;12057;52.042;6.830;2022-11-24T14:40:53;10.20;99.90
23755;DHT22;12057;52.042;6.830;2022-11-24T14:46:16;10.10;99.90
23755;DHT22;12057;52.042;6.830;2022-11-24T14:51:27;10.20;99.90
23755;DHT22;12057;52.042;6.830;2022-11-24T14:56:38;10.00;99.90
23755;DHT22;12057;52.042;6.830;2022-11-24T15:01:39;10.00;99.90
23755;DHT22;12057;52.042;6.830;2022-11-24T15:06:41;9.80;99.90
23755;DHT22;12057;52.042;6.830;2022-11-24T15:11:43;9.70;99.90
23755;DHT22;12057;52.042;6.830;2022-11-24T15:16:44;9.70;99.90
23755;DHT22;12057;52.042;6.830;2022-11-24T15:21:46;9.60;99.90
23755;DHT22;12057;52.042;6.830;2022-11-24T15:26:58;9.50;99.90
23755;DHT22;12057;52.042;6.830;2022-11-24T15:31:59;9.30;99.90
23755;DHT22;12057;52.042;6.830;2022-11-24T15:37:00;9.20;99.90
23755;DHT22;12057;52.042;6.830;2022-11-24T15:42:01;9.00;99.90
23755;DHT22;12057;52.042;6.830;2022-11-24T15:47:02;9.00;99.90
23755;DHT22;12057;52.042;6.830;2022-11-24T15:52:02;8.90;99.90
23755;DHT22;12057;52.042;6.830;2022-11-24T15:57:03;8.80;99.90
23755;DHT22;12057;52.042;6.830;2022-11-24T16:02:04;8.80;99.90
23755;DHT22;12057;52.042;6.830;2022-11-24T16:07:05;8.60;99.90
23755;DHT22;12057;52.042;6.830;2022-11-24T16:12:06;8.60;99.90
23755;DHT22;12057;52.042;6.830;2022-11-24T16:17:10;8.50;99.90
23755;DHT22;12057;52.042;6.830;2022-11-24T16:22:11;8.40;99.90
23755;DHT22;12057;52.042;6.830;2022-11-24T16:27:11;8.40;99.90
23755;DHT22;12057;52.042;6.830;2022-11-24T16:32:12;8.30;99.90
23755;DHT22;12057;52.042;6.830;2022-11-24T16:37:13;8.20;99.90
23755;DHT22;12057;52.042;6.830;2022-11-24T16:42:14;8.20;99.90
23755;DHT22;12057;52.042;6.830;2022-11-24T16:47:15;8.10;99.90
23755;DHT22;12057;52.042;6.830;2022-11-24T16:52:16;8.00;99.90
23755;DHT22;12057;52.042;6.830;2022-11-24T16:57:17;8.00;99.90
23755;DHT22;12057;52.042;6.830;2022-11-24T17:02:18;7.90;99.90
23755;DHT22;12057;52.042;6.830;2022-11-24T17:07:18;7.90;99.90
23755;DHT22;12057;52.042;6.830;2022-11-24T17:12:20;7.90;99.90
23755;DHT22;12057;52.042;6.830;2022-11-24T17:17:21;7.90;99.90
23755;DHT22;12057;52.042;6.830;2022-11-24T17:22:21;7.90;99.90
23755;DHT22;12057;52.042;6.830;2022-11-24T17:27:22;7.90;99.90
23755;DHT22;12057;52.042;6.830;2022-11-24T17:32:23;7.80;99.90
23755;DHT22;12057;52.042;6.830;2022-11-24T17:37:27;7.80;99.90
23755;DHT22;12057;52.042;6.830;2022-11-24T17:42:27;7.80;99.90
23755;DHT22;12057;52.042;6.830;2022-11-24T17:47:28;7.80;99.90
23755;DHT22;12057;52.042;6.830;2022-11-24T17:52:29;7.70;99.90
23755;DHT22;12057;52.042;6.830;2022-11-24T17:57:30;7.70;99.90
23755;DHT22;12057;52.042;6.830;2022-11-24T18:02:31;7.60;99.90
23755;DHT22;12057;52.042;6.830;2022-11-24T18:07:34;7.60;99.90
23755;DHT22;12057;52.042;6.830;2022-11-24T18:12:35;7.60;99.90
23755;DHT22;12057;52.042;6.830;2022-11-24T18:17:36;7.50;99.90
23755;DHT22;12057;52.042;6.830;2022-11-24T18:22:39;7.50;99.90
23755;DHT22;12057;52.042;6.830;2022-11-24T18:27:39;7.40;99.90
23755;DHT22;12057;52.042;6.830;2022-11-24T18:32:41;7.40;99.90
23755;DHT22;12057;52.042;6.830;2022-11-24T18:37:41;7.40;99.90
23755;DHT22;12057;52.042;6.830;2022-11-24T18:42:43;7.40;99.90
23755;DHT22;12057;52.042;6.830;2022-11-24T18:47:44;7.30;99.90
23755;DHT22;12057;52.042;6.830;2022-11-24T18:52:45;7.30;99.90
23755;DHT22;12057;52.042;6.830;2022-11-24T18:57:46;7.30;99.90
23755;DHT22;12057;52.042;6.830;2022-11-24T19:02:50;7.30;99.90
23755;DHT22;12057;52.042;6.830;2022-11-24T19:07:51;7.20;99.90
23755;DHT22;12057;52.042;6.830;2022-11-24T19:12:52;7.30;99.90
23755;DHT22;12057;52.042;6.830;2022-11-24T19:17:54;7.30;99.90
23755;DHT22;12057;52.042;6.830;2022-11-24T19:22:55;7.30;99.90
23755;DHT22;12057;52.042;6.830;2022-11-24T19:27:56;7.30;99.90
23755;DHT22;12057;52.042;6.830;2022-11-24T19:32:57;7.20;99.90
23755;DHT22;12057;52.042;6.830;2022-11-24T19:37:57;7.20;99.90
23755;DHT22;12057;52.042;6.830;2022-11-24T19:42:58;7.20;99.90
23755;DHT22;12057;52.042;6.830;2022-11-24T19:47:59;7.20;99.90
23755;DHT22;12057;52.042;6.830;2022-11-24T19:53:00;7.20;99.90
23755;DHT22;12057;52.042;6.830;2022-11-24T19:58:01;7.30;99.90
23755;DHT22;12057;52.042;6.830;2022-11-24T20:03:01;7.30;99.90
23755;DHT22;12057;52.042;6.830;2022-11-24T20:08:03;7.30;99.90
23755;DHT22;12057;52.042;6.830;2022-11-24T20:13:03;7.30;99.90
23755;DHT22;12057;52.042;6.830;2022-11-24T20:18:04;7.30;99.90
23755;DHT22;12057;52.042;6.830;2022-11-24T20:23:05;7.30;99.90
23755;DHT22;12057;52.042;6.830;2022-11-24T20:28:06;7.30;99.90
23755;DHT22;12057;52.042;6.830;2022-11-24T20:33:06;7.30;99.90
23755;DHT22;12057;52.042;6.830;2022-11-24T20:38:07;7.30;99.90
23755;DHT22;12057;52.042;6.830;2022-11-24T20:43:08;7.30;99.90
23755;DHT22;12057;52.042;6.830;2022-11-24T20:48:09;7.30;99.90
23755;DHT22;12057;52.042;6.830;2022-11-24T20:53:09;7.20;99.90
23755;DHT22;12057;52.042;6.830;2022-11-24T20:58:10;7.20;99.90
23755;DHT22;12057;52.042;6.830;2022-11-24T21:03:11;7.20;99.90
23755;DHT22;12057;52.042;6.830;2022-11-24T21:08:11;7.10;99.90
23755;DHT22;12057;52.042;6.830;2022-11-24T21:13:12;7.10;99.90
23755;DHT22;12057;52.042;6.830;2022-11-24T21:18:13;7.00;99.90
23755;DHT22;12057;52.042;6.830;2022-11-24T21:23:14;7.00;99.90
23755;DHT22;12057;52.042;6.830;2022-11-24T21:28:15;7.00;99.90
23755;DHT22;12057;52.042;6.830;2022-11-24T21:33:16;7.00;99.90
23755;DHT22;12057;52.042;6.830;2022-11-24T21:38:19;7.00;99.90
23755;DHT22;12057;52.042;6.830;2022-11-24T21:43:19;7.00;99.90
23755;DHT22;12057;52.042;6.830;2022-11-24T21:48:20;6.90;99.90
23755;DHT22;12057;52.042;6.830;2022-11-24T21:53:21;6.90;99.90
23755;DHT22;12057;52.042;6.830;2022-11-24T21:58:22;6.90;99.90
23755;DHT22;12057;52.042;6.830;2022-11-24T22:03:23;6.90;99.90
23755;DHT22;12057;52.042;6.830;2022-11-24T22:08:24;6.90;99.90
23755;DHT22;12057;52.042;6.830;2022-11-24T22:13:26;6.90;99.90
23755;DHT22;12057;52.042;6.830;2022-11-24T22:18:31;6.90;99.90
23755;DHT22;12057;52.042;6.830;2022-11-24T22:23:33;6.90;99.90
23755;DHT22;12057;52.042;6.830;2022-11-24T22:28:35;6.90;99.90
23755;DHT22;12057;52.042;6.830;2022-11-24T22:33:36;6.90;99.90
23755;DHT22;12057;52.042;6.830;2022-11-24T22:38:37;6.90;99.90
23755;DHT22;12057;52.042;6.830;2022-11-24T22:43:39;6.90;99.90
23755;DHT22;12057;52.042;6.830;2022-11-24T22:48:41;6.90;99.90
23755;DHT22;12057;52.042;6.830;2022-11-24T22:53:50;7.00;99.90
23755;DHT22;12057;52.042;6.830;2022-11-24T22:58:51;7.10;99.90
23755;DHT22;12057;52.042;6.830;2022-11-24T23:03:52;7.10;99.90
23755;DHT22;12057;52.042;6.830;2022-11-24T23:08:55;7.20;99.90
23755;DHT22;12057;52.042;6.830;2022-11-24T23:13:57;7.30;99.90
23755;DHT22;12057;52.042;6.830;2022-11-24T23:18:59;7.30;99.90
23755;DHT22;12057;52.042;6.830;2022-11-24T23:24:01;7.30;99.90
23755;DHT22;12057;52.042;6.830;2022-11-24T23:29:03;7.40;99.90
23755;DHT22;12057;52.042;6.830;2022-11-24T23:34:04;7.40;99.90
23755;DHT22;12057;52.042;6.830;2022-11-24T23:39:07;7.40;99.90
23755;DHT22;12057;52.042;6.830;2022-11-24T23:44:08;7.30;99.90
23755;DHT22;12057;52.042;6.830;2022-11-24T23:49:09;7.30;99.90
23755;DHT22;12057;52.042;6.830;2022-11-24T23:54:10;7.30;99.90
23755;DHT22;12057;52.042;6.830;2022-11-24T23:59:11;7.40;99.90
